createdAt,value
2018-06-23T00:01:40.665Z,10.80
2018-06-23T00:04:08.609Z,10.90
2018-06-23T00:06:36.579Z,10.90
2018-06-23T00:09:05.926Z,10.90
2018-06-23T00:11:33.864Z,10.90
2018-06-23T00:14:01.809Z,11.00
2018-06-23T00:16:29.758Z,11.00
2018-06-23T00:18:57.710Z,11.00
2018-06-23T00:21:25.664Z,10.90
2018-06-23T00:23:53.880Z,10.80
2018-06-23T00:26:27.318Z,10.80
2018-06-23T00:28:55.299Z,10.70
2018-06-23T00:31:23.308Z,10.70
2018-06-23T00:33:51.369Z,10.70
2018-06-23T00:36:19.390Z,10.60
2018-06-23T00:38:47.406Z,10.60
2018-06-23T00:41:15.632Z,10.50
2018-06-23T00:43:43.660Z,10.40
2018-06-23T00:46:11.596Z,10.30
2018-06-23T00:48:39.745Z,10.40
2018-06-23T00:51:08.871Z,10.30
2018-06-23T00:53:36.792Z,10.30
2018-06-23T00:56:04.932Z,10.20
2018-06-23T00:58:44.344Z,10.10
2018-06-23T01:01:12.263Z,10.10
2018-06-23T01:03:40.320Z,10.10
2018-06-23T01:06:08.333Z,10.10
2018-06-23T01:08:36.672Z,10.20
2018-06-23T01:11:05.044Z,10.10
2018-06-23T01:13:32.995Z,10.10
2018-06-23T01:16:01.973Z,10.10
2018-06-23T01:18:30.044Z,10.10
2018-06-23T01:20:57.963Z,10.20
2018-06-23T01:23:25.947Z,10.20
2018-06-23T01:25:53.848Z,10.00
2018-06-23T01:28:21.837Z,10.00
2018-06-23T01:30:49.851Z,10.00
2018-06-23T01:35:45.469Z,9.80
2018-06-23T01:38:13.403Z,9.80
2018-06-23T01:40:41.402Z,9.70
2018-06-23T01:43:09.462Z,9.70
2018-06-23T01:45:37.323Z,9.70
2018-06-23T01:50:33.197Z,9.70
2018-06-23T01:53:01.167Z,9.80
2018-06-23T01:55:29.210Z,9.80
2018-06-23T01:57:57.271Z,9.80
2018-06-23T02:00:25.419Z,9.90
2018-06-23T02:02:53.383Z,9.80
2018-06-23T02:05:21.217Z,9.80
2018-06-23T02:07:49.204Z,9.80
2018-06-23T02:10:17.137Z,9.80
2018-06-23T02:12:45.113Z,9.90
2018-06-23T02:15:13.142Z,9.90
2018-06-23T02:17:46.796Z,9.80
2018-06-23T02:20:20.242Z,9.90
2018-06-23T02:22:53.755Z,10.00
2018-06-23T02:25:27.283Z,9.90
2018-06-23T02:28:00.849Z,9.60
2018-06-23T02:30:36.030Z,9.60
2018-06-23T02:33:09.357Z,9.70
2018-06-23T02:35:37.382Z,9.70
2018-06-23T02:38:05.571Z,9.70
2018-06-23T02:40:33.575Z,9.60
2018-06-23T02:43:01.540Z,9.50
2018-06-23T02:45:29.409Z,9.60
2018-06-23T02:47:57.294Z,9.50
2018-06-23T02:50:25.228Z,9.60
2018-06-23T02:52:53.125Z,9.60
2018-06-23T02:55:21.133Z,9.40
2018-06-23T02:57:49.146Z,9.40
2018-06-23T03:00:17.213Z,9.50
2018-06-23T03:02:45.278Z,9.60
2018-06-23T03:05:13.300Z,9.70
2018-06-23T03:07:41.239Z,9.70
2018-06-23T03:10:08.881Z,9.80
2018-06-23T03:12:36.847Z,9.90
2018-06-23T03:17:32.873Z,9.90
2018-06-23T03:20:00.773Z,10.00
2018-06-23T03:22:28.761Z,10.10
2018-06-23T03:24:56.809Z,10.10
2018-06-23T03:27:24.722Z,10.10
2018-06-23T03:29:52.881Z,10.10
2018-06-23T03:32:20.861Z,10.20
2018-06-23T03:34:48.772Z,10.30
2018-06-23T03:37:17.424Z,10.40
2018-06-23T03:39:45.513Z,10.40
2018-06-23T03:42:13.503Z,10.40
2018-06-23T03:44:41.483Z,10.40
2018-06-23T03:47:09.550Z,10.50
2018-06-23T03:49:37.513Z,10.40
2018-06-23T03:52:05.534Z,10.40
2018-06-23T03:54:33.502Z,10.40
2018-06-23T03:57:01.606Z,10.50
2018-06-23T03:59:29.708Z,10.60
2018-06-23T04:01:57.721Z,10.70
2018-06-23T04:04:25.815Z,10.70
2018-06-23T04:06:53.683Z,10.70
2018-06-23T04:09:21.739Z,10.70
2018-06-23T04:11:49.588Z,10.70
2018-06-23T04:14:17.610Z,10.70
2018-06-23T04:16:46.515Z,10.80
2018-06-23T04:19:14.453Z,10.80
2018-06-23T04:21:42.308Z,10.80
2018-06-23T04:24:10.321Z,10.90
2018-06-23T04:26:38.306Z,10.90
2018-06-23T04:29:06.300Z,11.00
2018-06-23T04:31:34.298Z,10.90
2018-06-23T04:34:02.411Z,11.00
2018-06-23T04:36:30.445Z,11.00
2018-06-23T04:38:58.445Z,11.20
2018-06-23T04:41:26.454Z,11.30
2018-06-23T04:43:54.364Z,11.30
2018-06-23T04:46:22.341Z,11.40
2018-06-23T04:48:50.405Z,11.40
2018-06-23T04:51:18.436Z,11.50
2018-06-23T04:53:47.697Z,11.60
2018-06-23T04:56:16.211Z,11.50
2018-06-23T04:58:44.252Z,11.50
2018-06-23T05:01:12.219Z,11.60
2018-06-23T05:03:40.309Z,11.70
2018-06-23T05:06:08.395Z,11.60
2018-06-23T05:08:37.384Z,11.60
2018-06-23T05:11:05.574Z,11.70
2018-06-23T05:13:33.500Z,11.80
2018-06-23T05:16:01.434Z,11.90
2018-06-23T05:18:29.600Z,12.00
2018-06-23T05:20:57.418Z,12.00
2018-06-23T05:25:53.135Z,12.00
2018-06-23T05:28:20.933Z,12.10
2018-06-23T05:30:48.939Z,12.20
2018-06-23T05:33:19.378Z,12.20
2018-06-23T05:35:47.318Z,12.50
2018-06-23T05:38:15.278Z,12.50
2018-06-23T05:40:43.374Z,12.50
2018-06-23T05:43:11.592Z,12.50
2018-06-23T05:45:50.162Z,12.60
2018-06-23T05:48:18.150Z,12.60
2018-06-23T05:50:46.096Z,12.60
2018-06-23T05:53:14.108Z,12.60
2018-06-23T05:55:42.135Z,12.50
2018-06-23T05:58:10.040Z,12.60
2018-06-23T06:00:38.187Z,12.70
2018-06-23T06:03:06.206Z,12.70
2018-06-23T06:05:34.422Z,12.80
2018-06-23T06:08:02.499Z,12.80
2018-06-23T06:10:30.596Z,13.00
2018-06-23T06:12:58.590Z,13.10
2018-06-23T06:15:27.837Z,13.10
2018-06-23T06:17:55.818Z,13.30
2018-06-23T06:20:24.842Z,13.40
2018-06-23T06:22:54.020Z,13.60
2018-06-23T06:25:22.216Z,13.70
2018-06-23T06:27:50.335Z,13.90
2018-06-23T06:30:18.565Z,14.00
2018-06-23T06:32:46.588Z,14.00
2018-06-23T06:35:14.614Z,14.20
2018-06-23T06:37:42.552Z,14.30
2018-06-23T06:40:10.634Z,14.40
2018-06-23T06:42:38.696Z,14.30
2018-06-23T06:45:07.135Z,14.40
2018-06-23T06:47:35.027Z,14.40
2018-06-23T06:50:03.093Z,14.30
2018-06-23T06:52:31.237Z,14.20
2018-06-23T06:54:59.276Z,14.20
2018-06-23T06:57:27.311Z,14.20
2018-06-23T06:59:55.250Z,14.40
2018-06-23T07:02:23.326Z,14.50
2018-06-23T07:04:51.230Z,14.80
2018-06-23T07:07:19.278Z,15.00
2018-06-23T07:12:15.598Z,15.50
2018-06-23T07:14:43.884Z,15.70
2018-06-23T07:17:11.860Z,15.60
2018-06-23T07:19:39.858Z,15.70
2018-06-23T07:22:07.805Z,15.70
2018-06-23T07:24:35.754Z,15.60
2018-06-23T07:27:03.689Z,15.60
2018-06-23T07:29:31.667Z,15.40
2018-06-23T07:31:59.687Z,15.40
2018-06-23T07:34:27.832Z,15.50
2018-06-23T07:36:55.890Z,15.60
2018-06-23T07:39:24.020Z,15.90
2018-06-23T07:41:52.143Z,16.00
2018-06-23T07:44:20.282Z,15.90
2018-06-23T07:46:48.195Z,16.10
2018-06-23T07:49:16.260Z,15.80
2018-06-23T07:51:44.414Z,15.80
2018-06-23T07:54:12.380Z,15.70
2018-06-23T07:56:40.329Z,15.50
2018-06-23T07:59:08.325Z,15.40
2018-06-23T08:01:36.381Z,14.90
2018-06-23T08:04:04.511Z,14.70
2018-06-23T08:06:32.625Z,14.60
2018-06-23T08:09:00.595Z,14.40
2018-06-23T08:11:28.567Z,14.40
2018-06-23T08:13:56.514Z,14.40
2018-06-23T08:16:24.572Z,14.50
2018-06-23T08:18:52.553Z,14.50
2018-06-23T08:21:20.481Z,14.50
2018-06-23T08:23:48.528Z,14.50
2018-06-23T08:26:16.576Z,14.60
2018-06-23T08:31:12.225Z,14.70
2018-06-23T08:33:40.372Z,14.50
2018-06-23T08:36:08.380Z,14.60
2018-06-23T08:38:36.363Z,14.50
2018-06-23T08:41:04.449Z,14.30
2018-06-23T08:43:32.670Z,14.40
2018-06-23T08:46:00.577Z,14.30
2018-06-23T08:48:28.508Z,14.20
2018-06-23T08:50:56.493Z,14.30
2018-06-23T08:53:24.428Z,14.30
2018-06-23T08:55:52.549Z,14.30
2018-06-23T08:58:20.502Z,14.30
2018-06-23T09:00:48.530Z,14.50
2018-06-23T09:03:16.585Z,14.50
2018-06-23T09:05:44.746Z,14.60
2018-06-23T09:08:12.822Z,14.50
2018-06-23T09:10:40.884Z,14.40
2018-06-23T09:13:09.102Z,14.30
2018-06-23T09:15:37.249Z,14.40
2018-06-23T09:18:05.330Z,14.40
2018-06-23T09:20:33.352Z,14.60
2018-06-23T09:23:01.379Z,14.90
2018-06-23T09:25:30.415Z,14.80
2018-06-23T09:27:58.316Z,14.80
2018-06-23T09:30:26.203Z,14.70
2018-06-23T09:32:54.234Z,14.80
2018-06-23T09:35:22.123Z,14.80
2018-06-23T09:37:50.256Z,14.70
2018-06-23T09:40:18.381Z,14.70
2018-06-23T09:42:46.763Z,14.80
2018-06-23T09:45:14.775Z,14.90
2018-06-23T09:47:42.819Z,14.80
2018-06-23T09:50:10.813Z,14.70
2018-06-23T09:52:39.075Z,14.70
2018-06-23T09:55:07.127Z,14.70
2018-06-23T09:57:35.149Z,14.60
2018-06-23T10:00:03.256Z,14.80
2018-06-23T10:02:31.410Z,14.80
2018-06-23T10:04:59.382Z,14.60
2018-06-23T10:07:27.432Z,14.40
2018-06-23T10:09:55.290Z,14.30
2018-06-23T10:12:23.269Z,14.10
2018-06-23T10:14:51.435Z,13.90
2018-06-23T10:17:19.430Z,13.80
2018-06-23T10:19:47.501Z,13.80
2018-06-23T10:22:15.483Z,13.90
2018-06-23T10:24:43.433Z,13.90
2018-06-23T10:27:11.376Z,13.70
2018-06-23T10:29:39.420Z,13.70
2018-06-23T10:32:07.452Z,13.90
2018-06-23T10:34:35.533Z,13.90
2018-06-23T10:37:03.601Z,14.00
2018-06-23T10:39:31.633Z,13.80
2018-06-23T10:41:59.534Z,13.90
2018-06-23T10:44:27.577Z,13.90
2018-06-23T10:46:55.550Z,14.10
2018-06-23T10:49:23.566Z,14.20
2018-06-23T10:51:51.601Z,14.20
2018-06-23T10:54:19.636Z,13.90
2018-06-23T10:56:47.697Z,13.70
2018-06-23T10:59:16.174Z,13.60
2018-06-23T11:01:44.117Z,13.50
2018-06-23T11:04:12.299Z,13.40
2018-06-23T11:06:40.318Z,13.50
2018-06-23T11:09:09.358Z,13.50
2018-06-23T11:11:37.523Z,13.40
2018-06-23T11:14:05.799Z,13.40
2018-06-23T11:16:33.800Z,13.30
2018-06-23T11:19:02.504Z,13.40
2018-06-23T11:21:30.535Z,13.40
2018-06-23T11:23:58.632Z,13.40
2018-06-23T11:26:26.640Z,13.60
2018-06-23T11:28:54.680Z,13.50
2018-06-23T11:31:22.665Z,13.50
2018-06-23T11:33:50.666Z,13.50
2018-06-23T11:36:18.695Z,13.60
2018-06-23T11:38:46.639Z,13.70
2018-06-23T11:41:14.699Z,13.70
2018-06-23T11:43:42.729Z,13.80
2018-06-23T11:46:10.867Z,14.00
2018-06-23T11:48:38.858Z,14.10
2018-06-23T11:51:07.014Z,14.20
2018-06-23T11:53:34.974Z,14.40
2018-06-23T11:56:03.034Z,14.50
2018-06-23T11:58:31.030Z,14.50
2018-06-23T12:00:58.928Z,14.20
2018-06-23T12:03:26.811Z,14.10
2018-06-23T12:05:54.755Z,14.00
2018-06-23T12:08:22.908Z,14.10
2018-06-23T12:10:50.990Z,14.00
2018-06-23T12:13:18.903Z,14.00
2018-06-23T12:15:46.951Z,14.10
2018-06-23T12:18:14.945Z,14.10
2018-06-23T12:20:42.998Z,14.00
2018-06-23T12:23:11.089Z,14.00
2018-06-23T12:25:39.172Z,14.00
2018-06-23T12:28:07.493Z,13.90
2018-06-23T12:33:03.540Z,13.70
2018-06-23T12:35:31.567Z,13.70
2018-06-23T12:37:59.639Z,13.60
2018-06-23T12:40:27.663Z,13.50
2018-06-23T12:42:55.723Z,13.50
2018-06-23T12:45:23.720Z,13.50
2018-06-23T12:47:51.654Z,13.30
2018-06-23T12:50:20.086Z,13.30
2018-06-23T12:52:48.081Z,13.40
2018-06-23T12:55:16.087Z,13.50
2018-06-23T12:57:44.063Z,13.60
2018-06-23T13:00:11.982Z,13.70
2018-06-23T13:02:39.896Z,13.80
2018-06-23T13:05:08.055Z,13.90
2018-06-23T13:07:36.146Z,14.00
2018-06-23T13:10:04.302Z,13.90
2018-06-23T13:12:32.179Z,13.90
2018-06-23T13:15:00.289Z,14.00
2018-06-23T13:17:28.392Z,14.00
2018-06-23T13:19:56.356Z,13.90
2018-06-23T13:22:24.515Z,13.80
2018-06-23T13:24:52.433Z,13.70
2018-06-23T13:27:20.450Z,13.70
2018-06-23T13:29:48.453Z,13.60
2018-06-23T13:32:16.431Z,13.90
2018-06-23T13:34:44.396Z,14.00
2018-06-23T13:37:12.317Z,14.20
2018-06-23T13:39:40.443Z,14.50
2018-06-23T13:42:08.480Z,14.70
2018-06-23T13:44:36.582Z,14.80
2018-06-23T13:47:04.786Z,15.00
2018-06-23T13:49:32.800Z,15.20
2018-06-23T13:52:00.752Z,15.20
2018-06-23T13:54:28.653Z,15.10
2018-06-23T13:56:56.627Z,15.10
2018-06-23T13:59:24.625Z,14.90
2018-06-23T14:01:52.765Z,14.80
2018-06-23T14:04:20.764Z,14.60
2018-06-23T14:06:48.788Z,14.50
2018-06-23T14:09:16.766Z,14.50
2018-06-23T14:11:44.760Z,14.40
2018-06-23T14:14:12.796Z,14.30
2018-06-23T14:16:40.802Z,14.10
2018-06-23T14:19:08.780Z,14.00
2018-06-23T14:21:36.831Z,13.90
2018-06-23T14:24:04.923Z,14.00
2018-06-23T14:26:32.941Z,14.10
2018-06-23T14:29:01.542Z,14.30
2018-06-23T14:31:29.558Z,14.60
2018-06-23T14:33:57.546Z,14.60
2018-06-23T14:36:25.464Z,14.40
2018-06-23T14:38:53.419Z,14.50
2018-06-23T14:41:21.599Z,14.60
2018-06-23T14:43:49.512Z,14.80
2018-06-23T14:46:17.383Z,14.80
2018-06-23T14:48:45.464Z,14.80
2018-06-23T14:51:13.525Z,15.10
2018-06-23T14:53:41.456Z,15.20
2018-06-23T14:56:09.582Z,15.40
2018-06-23T14:58:37.552Z,15.60
2018-06-23T15:01:05.521Z,15.60
2018-06-23T15:03:33.553Z,15.70
2018-06-23T15:06:04.831Z,15.60
2018-06-23T15:08:44.123Z,15.60
2018-06-23T15:11:23.285Z,15.30
2018-06-23T15:13:51.174Z,15.10
2018-06-23T15:16:19.138Z,14.90
2018-06-23T15:18:47.514Z,14.60
2018-06-23T15:21:15.527Z,14.40
2018-06-23T15:23:43.473Z,14.30
2018-06-23T15:26:11.469Z,14.20
2018-06-23T15:28:39.522Z,14.00
2018-06-23T15:31:07.683Z,13.90
2018-06-23T15:33:35.919Z,13.80
2018-06-23T15:36:04.328Z,13.90
2018-06-23T15:38:32.354Z,13.70
2018-06-23T15:41:00.465Z,13.60
2018-06-23T15:43:28.738Z,13.50
2018-06-23T15:45:56.870Z,13.40
2018-06-23T15:48:24.928Z,13.30
2018-06-23T15:50:53.043Z,13.40
2018-06-23T15:53:21.554Z,13.40
2018-06-23T15:55:49.814Z,13.50
2018-06-23T15:58:18.573Z,13.50
2018-06-23T16:00:46.544Z,13.50
2018-06-23T16:03:15.535Z,13.70
2018-06-23T16:05:43.713Z,13.70
2018-06-23T16:08:11.972Z,13.70
2018-06-23T16:10:39.988Z,13.70
2018-06-23T16:13:08.045Z,13.70
2018-06-23T16:15:36.160Z,13.60
2018-06-23T16:18:04.704Z,13.50
2018-06-23T16:20:32.880Z,13.50
2018-06-23T16:23:01.056Z,13.40
2018-06-23T16:25:29.276Z,13.40
2018-06-23T16:30:25.607Z,13.40
2018-06-23T16:32:53.609Z,13.30
2018-06-23T16:35:22.075Z,13.30
2018-06-23T16:37:49.931Z,13.20
2018-06-23T16:40:18.495Z,13.10
2018-06-23T16:42:46.786Z,13.10
2018-06-23T16:47:42.920Z,13.20
2018-06-23T16:50:11.366Z,13.00
2018-06-23T16:55:07.853Z,13.00
2018-06-23T16:57:36.134Z,13.10
2018-06-23T17:00:05.137Z,13.20
2018-06-23T17:02:33.253Z,13.20
2018-06-23T17:05:01.458Z,13.20
2018-06-23T17:07:29.807Z,13.20
2018-06-23T17:09:58.038Z,13.10
2018-06-23T17:12:27.539Z,13.10
2018-06-23T17:14:56.445Z,13.10
2018-06-23T17:17:24.523Z,13.00
2018-06-23T17:19:52.600Z,13.00
2018-06-23T17:22:23.025Z,13.00
2018-06-23T17:24:50.968Z,13.00
2018-06-23T17:27:19.110Z,13.10
2018-06-23T17:29:47.343Z,13.10
2018-06-23T17:32:15.670Z,13.10
2018-06-23T17:34:43.790Z,13.20
2018-06-23T17:37:11.900Z,13.20
2018-06-23T17:39:39.851Z,13.20
2018-06-23T17:42:07.992Z,13.10
2018-06-23T17:44:36.125Z,13.10
2018-06-23T17:47:04.354Z,13.00
2018-06-23T17:49:32.479Z,13.00
2018-06-23T17:52:00.695Z,13.10
2018-06-23T17:54:28.819Z,13.10
2018-06-23T17:59:24.757Z,13.00
2018-06-23T18:01:53.172Z,13.00
2018-06-23T18:04:21.338Z,13.10
2018-06-23T18:06:49.566Z,13.20
2018-06-23T18:09:17.869Z,13.10
2018-06-23T18:11:46.094Z,13.10
2018-06-23T18:14:14.298Z,13.10
2018-06-23T18:16:42.604Z,13.10
2018-06-23T18:19:10.936Z,13.10
2018-06-23T18:21:39.141Z,13.00
2018-06-23T18:24:07.265Z,13.00
2018-06-23T18:26:35.293Z,12.90
2018-06-23T18:29:03.868Z,12.90
2018-06-23T18:31:32.291Z,12.80
2018-06-23T18:34:00.463Z,12.80
2018-06-23T18:36:28.558Z,12.80
2018-06-23T18:38:56.889Z,12.80
2018-06-23T18:41:25.396Z,12.70
2018-06-23T18:43:53.557Z,12.70
2018-06-23T18:46:21.629Z,12.70
2018-06-23T18:48:49.913Z,12.60
2018-06-23T18:51:18.416Z,12.60
2018-06-23T18:53:46.471Z,12.60
2018-06-23T18:56:14.633Z,12.60
2018-06-23T18:58:43.618Z,12.60
2018-06-23T19:01:11.730Z,12.60
2018-06-23T19:03:40.251Z,12.50
2018-06-23T19:06:09.318Z,12.60
2018-06-23T19:08:37.406Z,12.50
2018-06-23T19:11:05.515Z,12.50
2018-06-23T19:13:33.678Z,12.40
2018-06-23T19:16:01.863Z,12.40
2018-06-23T19:18:30.135Z,12.40
2018-06-23T19:20:58.414Z,12.40
2018-06-23T19:23:26.554Z,12.40
2018-06-23T19:25:54.659Z,12.30
2018-06-23T19:28:22.908Z,12.40
2018-06-23T19:30:51.732Z,12.30
2018-06-23T19:33:20.037Z,12.30
2018-06-23T19:35:48.125Z,12.30
2018-06-23T19:38:16.236Z,12.30
2018-06-23T19:40:45.374Z,12.30
2018-06-23T19:43:13.670Z,12.30
2018-06-23T19:45:41.771Z,12.30
2018-06-23T19:48:09.993Z,12.30
2018-06-23T19:50:38.068Z,12.20
2018-06-23T19:53:06.221Z,12.20
2018-06-23T19:55:34.255Z,12.20
2018-06-23T19:58:03.552Z,12.20
2018-06-23T20:00:31.911Z,12.20
2018-06-23T20:03:05.876Z,12.10
2018-06-23T20:05:34.138Z,12.20
2018-06-23T20:08:02.589Z,12.20
2018-06-23T20:10:30.664Z,12.20
2018-06-23T20:12:58.686Z,12.10
2018-06-23T20:15:26.624Z,12.10
2018-06-23T20:17:55.260Z,12.20
2018-06-23T20:20:23.713Z,12.10
2018-06-23T20:22:51.817Z,12.10
2018-06-23T20:25:20.778Z,12.00
2018-06-23T20:27:48.896Z,12.00
2018-06-23T20:30:17.108Z,12.00
2018-06-23T20:32:45.152Z,12.00
2018-06-23T20:35:13.406Z,11.90
2018-06-23T20:37:41.472Z,12.00
2018-06-23T20:40:10.465Z,12.00
2018-06-23T20:42:38.465Z,11.90
2018-06-23T20:45:06.610Z,12.00
2018-06-23T20:47:34.819Z,12.00
2018-06-23T20:50:03.097Z,12.00
2018-06-23T20:54:59.421Z,11.90
2018-06-23T20:57:27.605Z,12.00
2018-06-23T20:59:55.784Z,12.10
2018-06-23T21:02:23.814Z,12.00
2018-06-23T21:04:51.689Z,11.90
2018-06-23T21:07:19.853Z,11.90
2018-06-23T21:09:48.040Z,12.00
2018-06-23T21:12:16.270Z,11.90
2018-06-23T21:14:44.269Z,11.90
2018-06-23T21:17:12.839Z,12.00
2018-06-23T21:19:40.872Z,11.90
2018-06-23T21:22:08.896Z,11.90
2018-06-23T21:24:36.914Z,11.90
2018-06-23T21:27:05.000Z,11.90
2018-06-23T21:29:33.140Z,11.90
2018-06-23T21:32:01.271Z,12.00
2018-06-23T21:34:29.440Z,11.90
2018-06-23T21:36:57.645Z,11.90
2018-06-23T21:39:25.843Z,12.00
2018-06-23T21:41:54.773Z,12.00
2018-06-23T21:44:24.578Z,11.90
2018-06-23T21:46:52.791Z,11.90
2018-06-23T21:49:21.762Z,11.90
2018-06-23T21:51:49.765Z,11.90
2018-06-23T21:54:18.254Z,12.00
2018-06-23T21:56:46.248Z,11.90
2018-06-23T21:59:14.226Z,11.90
2018-06-23T22:01:42.540Z,11.90
2018-06-23T22:04:10.904Z,11.90
2018-06-23T22:06:38.786Z,11.90
2018-06-23T22:09:08.820Z,12.00
2018-06-23T22:11:36.869Z,12.00
2018-06-23T22:14:04.894Z,11.90
2018-06-23T22:16:32.806Z,11.90
2018-06-23T22:19:00.654Z,11.90
2018-06-23T22:21:28.642Z,11.80
2018-06-23T22:23:56.520Z,11.90
2018-06-23T22:26:24.491Z,11.90
2018-06-23T22:28:57.166Z,11.80
2018-06-23T22:31:25.439Z,11.80
2018-06-23T22:33:53.484Z,11.80
2018-06-23T22:36:21.378Z,11.80
2018-06-23T22:38:50.003Z,11.70
2018-06-23T22:41:17.956Z,11.70
2018-06-23T22:46:13.751Z,11.70
2018-06-23T22:48:41.707Z,11.70
2018-06-23T22:51:10.018Z,11.70
2018-06-23T22:53:37.924Z,11.70
2018-06-23T22:56:06.051Z,11.70
2018-06-23T22:58:33.986Z,11.70
2018-06-23T23:01:02.047Z,11.70
2018-06-23T23:03:29.916Z,11.70
2018-06-23T23:05:57.733Z,11.70
2018-06-23T23:08:30.206Z,11.70
2018-06-23T23:10:58.490Z,11.70
2018-06-23T23:13:26.486Z,11.70
2018-06-23T23:15:54.361Z,11.60
2018-06-23T23:18:24.369Z,11.60
2018-06-23T23:20:52.280Z,11.60
2018-06-23T23:23:20.506Z,11.60
2018-06-23T23:25:48.530Z,11.60
2018-06-23T23:28:16.817Z,11.60
2018-06-23T23:30:44.737Z,11.60
2018-06-23T23:33:12.756Z,11.60
2018-06-23T23:35:40.734Z,11.60
2018-06-23T23:38:08.755Z,11.60
2018-06-23T23:40:36.731Z,11.50
2018-06-23T23:43:04.738Z,11.60
2018-06-23T23:45:32.798Z,11.60
2018-06-23T23:48:00.853Z,11.60
2018-06-23T23:50:28.791Z,11.60
2018-06-23T23:52:56.810Z,11.60
2018-06-23T23:57:52.501Z,11.60
